Аэропорт: Борисполь. Киев

ICAO: UKBB

METAR:
2018/07/16 19:30
UKBB 161930Z 30002MPS CAVOK 19/17 Q1004 R88/CLRD// NOSIG
METAR:
2018/07/16 18:16
TAF UKBB 161702Z 1618/1718 30003MPS 6000 BKN030 
      TEMPO 1618/1621 VRB09G14MPS 2000 TSRA BKN010 BKN025CB 
      TEMPO 1621/1706 1600 -SHRA BR BKN006 SCT020CB 
      BECMG 1706/1708 32004G09MPS 9999 BKN020 
      TEMPO 1708/1718 VRB10G17MPS 1200 TSRAGR BKN007 BKN020CB